sensor_id;sensor_type;location;lat;lon;timestamp;temperature;humidity
78522;SHT31;67819;51.972;5.678;2023-08-21T00:00:09;19.8;69.6
78522;SHT31;67819;51.972;5.678;2023-08-21T00:02:39;19.8;69.9
78522;SHT31;67819;51.972;5.678;2023-08-21T00:05:08;19.8;70.1
78522;SHT31;67819;51.972;5.678;2023-08-21T00:10:15;19.8;69.6
78522;SHT31;67819;51.972;5.678;2023-08-21T00:12:44;19.7;70.0
78522;SHT31;67819;51.972;5.678;2023-08-21T00:15:15;19.7;69.8
78522;SHT31;67819;51.972;5.678;2023-08-21T00:17:45;19.7;70.0
78522;SHT31;67819;51.972;5.678;2023-08-21T00:20:14;19.8;70.0
78522;SHT31;67819;51.972;5.678;2023-08-21T00:22:43;19.8;70.1
78522;SHT31;67819;51.972;5.678;2023-08-21T00:25:14;19.7;70.0
78522;SHT31;67819;51.972;5.678;2023-08-21T00:30:11;19.6;70.3
78522;SHT31;67819;51.972;5.678;2023-08-21T00:32:41;19.7;70.4
78522;SHT31;67819;51.972;5.678;2023-08-21T00:35:10;19.7;70.4
78522;SHT31;67819;51.972;5.678;2023-08-21T00:37:45;19.6;70.6
78522;SHT31;67819;51.972;5.678;2023-08-21T00:40:15;19.6;70.8
78522;SHT31;67819;51.972;5.678;2023-08-21T00:45:10;19.6;70.9
78522;SHT31;67819;51.972;5.678;2023-08-21T00:47:41;19.6;71.2
78522;SHT31;67819;51.972;5.678;2023-08-21T00:50:12;19.6;71.2
78522;SHT31;67819;51.972;5.678;2023-08-21T00:52:43;19.6;71.3
78522;SHT31;67819;51.972;5.678;2023-08-21T00:55:13;19.6;71.4
78522;SHT31;67819;51.972;5.678;2023-08-21T00:57:42;19.5;71.6
78522;SHT31;67819;51.972;5.678;2023-08-21T01:00:15;19.5;71.7
78522;SHT31;67819;51.972;5.678;2023-08-21T01:02:43;19.4;71.8
78522;SHT31;67819;51.972;5.678;2023-08-21T01:07:51;19.2;72.6
78522;SHT31;67819;51.972;5.678;2023-08-21T01:10:33;19.1;72.8
78522;SHT31;67819;51.972;5.678;2023-08-21T01:13:11;19.1;72.6
78522;SHT31;67819;51.972;5.678;2023-08-21T01:15:43;19.1;72.8
78522;SHT31;67819;51.972;5.678;2023-08-21T01:18:13;19.1;72.9
78522;SHT31;67819;51.972;5.678;2023-08-21T01:20:42;19.0;72.9
78522;SHT31;67819;51.972;5.678;2023-08-21T01:23:26;19.0;72.9
78522;SHT31;67819;51.972;5.678;2023-08-21T01:25:49;18.9;72.9
78522;SHT31;67819;51.972;5.678;2023-08-21T01:28:18;18.8;73.1
78522;SHT31;67819;51.972;5.678;2023-08-21T01:30:48;18.8;73.3
78522;SHT31;67819;51.972;5.678;2023-08-21T01:33:19;18.7;73.4
78522;SHT31;67819;51.972;5.678;2023-08-21T01:35:50;18.6;73.7
78522;SHT31;67819;51.972;5.678;2023-08-21T01:38:19;18.5;73.8
78522;SHT31;67819;51.972;5.678;2023-08-21T01:40:50;18.4;74.1
78522;SHT31;67819;51.972;5.678;2023-08-21T01:43:19;18.3;74.4
78522;SHT31;67819;51.972;5.678;2023-08-21T01:45:48;18.2;74.8
78522;SHT31;67819;51.972;5.678;2023-08-21T01:48:16;18.1;75.3
78522;SHT31;67819;51.972;5.678;2023-08-21T01:53:13;18.2;74.7
78522;SHT31;67819;51.972;5.678;2023-08-21T01:55:41;18.3;75.0
78522;SHT31;67819;51.972;5.678;2023-08-21T01:58:10;18.4;74.9
78522;SHT31;67819;51.972;5.678;2023-08-21T02:00:38;18.4;75.0
78522;SHT31;67819;51.972;5.678;2023-08-21T02:03:08;18.3;75.4
78522;SHT31;67819;51.972;5.678;2023-08-21T02:05:40;18.3;75.6
78522;SHT31;67819;51.972;5.678;2023-08-21T02:08:13;18.3;75.5
78522;SHT31;67819;51.972;5.678;2023-08-21T02:10:49;18.3;75.4
78522;SHT31;67819;51.972;5.678;2023-08-21T02:13:18;18.2;75.4
78522;SHT31;67819;51.972;5.678;2023-08-21T02:15:47;18.2;75.6
78522;SHT31;67819;51.972;5.678;2023-08-21T02:18:15;18.1;75.9
78522;SHT31;67819;51.972;5.678;2023-08-21T02:23:10;18.2;75.9
78522;SHT31;67819;51.972;5.678;2023-08-21T02:25:39;18.2;76.1
78522;SHT31;67819;51.972;5.678;2023-08-21T02:28:07;18.3;76.2
78522;SHT31;67819;51.972;5.678;2023-08-21T02:30:39;18.3;76.3
78522;SHT31;67819;51.972;5.678;2023-08-21T02:33:08;18.3;76.4
78522;SHT31;67819;51.972;5.678;2023-08-21T02:37:40;18.1;76.7
78522;SHT31;67819;51.972;5.678;2023-08-21T02:40:09;18.1;77.2
78522;SHT31;67819;51.972;5.678;2023-08-21T02:42:37;18.2;76.8
78522;SHT31;67819;51.972;5.678;2023-08-21T02:45:11;18.3;76.3
78522;SHT31;67819;51.972;5.678;2023-08-21T02:47:41;18.3;76.6
78522;SHT31;67819;51.972;5.678;2023-08-21T02:50:10;18.4;76.4
78522;SHT31;67819;51.972;5.678;2023-08-21T02:52:39;18.4;76.3
78522;SHT31;67819;51.972;5.678;2023-08-21T02:55:08;18.3;76.3
78522;SHT31;67819;51.972;5.678;2023-08-21T02:57:37;18.3;76.4
78522;SHT31;67819;51.972;5.678;2023-08-21T03:00:06;18.2;76.7
78522;SHT31;67819;51.972;5.678;2023-08-21T03:02:35;18.2;77.1
78522;SHT31;67819;51.972;5.678;2023-08-21T03:05:04;18.2;77.4
78522;SHT31;67819;51.972;5.678;2023-08-21T03:07:34;18.2;77.5
78522;SHT31;67819;51.972;5.678;2023-08-21T03:10:03;18.1;77.6
78522;SHT31;67819;51.972;5.678;2023-08-21T03:12:31;18.1;77.8
78522;SHT31;67819;51.972;5.678;2023-08-21T03:15:00;18.1;78.1
78522;SHT31;67819;51.972;5.678;2023-08-21T03:17:29;18.2;78.3
78522;SHT31;67819;51.972;5.678;2023-08-21T03:19:57;18.2;78.3
78522;SHT31;67819;51.972;5.678;2023-08-21T03:22:26;18.2;78.4
78522;SHT31;67819;51.972;5.678;2023-08-21T03:27:22;18.6;76.7
78522;SHT31;67819;51.972;5.678;2023-08-21T03:29:50;18.6;76.9
78522;SHT31;67819;51.972;5.678;2023-08-21T03:32:19;18.5;76.9
78522;SHT31;67819;51.972;5.678;2023-08-21T03:34:47;18.5;77.0
78522;SHT31;67819;51.972;5.678;2023-08-21T03:37:18;18.5;77.1
78522;SHT31;67819;51.972;5.678;2023-08-21T03:39:46;18.5;77.2
78522;SHT31;67819;51.972;5.678;2023-08-21T03:42:15;18.5;77.3
78522;SHT31;67819;51.972;5.678;2023-08-21T03:44:45;18.4;77.3
78522;SHT31;67819;51.972;5.678;2023-08-21T03:47:16;18.4;77.4
78522;SHT31;67819;51.972;5.678;2023-08-21T03:49:45;18.3;77.5
78522;SHT31;67819;51.972;5.678;2023-08-21T03:52:14;18.3;77.7
78522;SHT31;67819;51.972;5.678;2023-08-21T03:54:43;18.2;77.8
78522;SHT31;67819;51.972;5.678;2023-08-21T03:57:11;18.2;77.9
78522;SHT31;67819;51.972;5.678;2023-08-21T03:59:40;18.1;77.9
78522;SHT31;67819;51.972;5.678;2023-08-21T04:02:08;18.1;78.1
78522;SHT31;67819;51.972;5.678;2023-08-21T04:04:37;18.0;78.1
78522;SHT31;67819;51.972;5.678;2023-08-21T04:07:16;18.1;77.9
78522;SHT31;67819;51.972;5.678;2023-08-21T04:09:45;18.2;77.9
78522;SHT31;67819;51.972;5.678;2023-08-21T04:12:13;18.2;77.8
78522;SHT31;67819;51.972;5.678;2023-08-21T04:14:41;18.3;77.8
78522;SHT31;67819;51.972;5.678;2023-08-21T04:17:10;18.3;77.8
78522;SHT31;67819;51.972;5.678;2023-08-21T04:19:38;18.3;77.9
78522;SHT31;67819;51.972;5.678;2023-08-21T04:22:07;18.3;78.0
78522;SHT31;67819;51.972;5.678;2023-08-21T04:24:35;18.3;78.1
78522;SHT31;67819;51.972;5.678;2023-08-21T04:27:04;18.3;78.3
78522;SHT31;67819;51.972;5.678;2023-08-21T04:29:34;18.3;78.5
78522;SHT31;67819;51.972;5.678;2023-08-21T04:32:03;18.2;78.7
78522;SHT31;67819;51.972;5.678;2023-08-21T04:34:33;18.2;78.8
78522;SHT31;67819;51.972;5.678;2023-08-21T04:37:04;18.2;78.7
78522;SHT31;67819;51.972;5.678;2023-08-21T04:39:32;18.1;78.8
78522;SHT31;67819;51.972;5.678;2023-08-21T04:42:03;18.1;79.0
78522;SHT31;67819;51.972;5.678;2023-08-21T04:44:32;18.1;79.2
78522;SHT31;67819;51.972;5.678;2023-08-21T04:47:22;18.0;79.5
78522;SHT31;67819;51.972;5.678;2023-08-21T04:52:32;18.2;78.7
78522;SHT31;67819;51.972;5.678;2023-08-21T04:55:00;18.2;78.7
78522;SHT31;67819;51.972;5.678;2023-08-21T04:57:29;18.3;78.7
78522;SHT31;67819;51.972;5.678;2023-08-21T04:59:57;18.3;78.7
78522;SHT31;67819;51.972;5.678;2023-08-21T05:02:25;18.3;78.7
78522;SHT31;67819;51.972;5.678;2023-08-21T05:04:54;18.2;78.8
78522;SHT31;67819;51.972;5.678;2023-08-21T05:07:23;18.2;78.9
78522;SHT31;67819;51.972;5.678;2023-08-21T05:09:53;18.2;79.1
78522;SHT31;67819;51.972;5.678;2023-08-21T05:12:21;18.2;79.1
78522;SHT31;67819;51.972;5.678;2023-08-21T05:14:52;18.1;79.2
78522;SHT31;67819;51.972;5.678;2023-08-21T05:17:20;18.1;79.3
78522;SHT31;67819;51.972;5.678;2023-08-21T05:19:49;18.1;79.4
78522;SHT31;67819;51.972;5.678;2023-08-21T05:22:17;18.0;79.6
78522;SHT31;67819;51.972;5.678;2023-08-21T05:24:46;18.0;79.9
78522;SHT31;67819;51.972;5.678;2023-08-21T05:27:14;18.0;80.2
78522;SHT31;67819;51.972;5.678;2023-08-21T05:29:43;18.0;80.6
78522;SHT31;67819;51.972;5.678;2023-08-21T05:32:11;18.0;81.0
78522;SHT31;67819;51.972;5.678;2023-08-21T05:34:40;18.1;81.3
78522;SHT31;67819;51.972;5.678;2023-08-21T05:37:08;18.1;81.5
78522;SHT31;67819;51.972;5.678;2023-08-21T05:39:37;18.1;81.5
78522;SHT31;67819;51.972;5.678;2023-08-21T05:42:06;18.2;81.5
78522;SHT31;67819;51.972;5.678;2023-08-21T05:44:34;18.2;81.4
78522;SHT31;67819;51.972;5.678;2023-08-21T05:47:03;18.3;81.3
78522;SHT31;67819;51.972;5.678;2023-08-21T05:49:31;18.3;81.1
78522;SHT31;67819;51.972;5.678;2023-08-21T05:52:00;18.3;81.1
78522;SHT31;67819;51.972;5.678;2023-08-21T05:54:31;18.3;81.0
78522;SHT31;67819;51.972;5.678;2023-08-21T05:56:59;18.4;81.1
78522;SHT31;67819;51.972;5.678;2023-08-21T05:59:31;18.4;81.2
78522;SHT31;67819;51.972;5.678;2023-08-21T06:02:00;18.5;81.2
78522;SHT31;67819;51.972;5.678;2023-08-21T06:04:31;18.5;81.1
78522;SHT31;67819;51.972;5.678;2023-08-21T06:06:59;18.6;80.9
78522;SHT31;67819;51.972;5.678;2023-08-21T06:09:29;18.6;80.8
78522;SHT31;67819;51.972;5.678;2023-08-21T06:11:58;19.2;77.8
78522;SHT31;67819;51.972;5.678;2023-08-21T06:14:27;19.3;78.0
78522;SHT31;67819;51.972;5.678;2023-08-21T06:16:58;19.3;77.8
78522;SHT31;67819;51.972;5.678;2023-08-21T06:19:27;19.4;77.9
78522;SHT31;67819;51.972;5.678;2023-08-21T06:21:56;19.4;78.0
78522;SHT31;67819;51.972;5.678;2023-08-21T06:24:25;19.4;78.0
78522;SHT31;67819;51.972;5.678;2023-08-21T06:26:54;19.5;78.0
78522;SHT31;67819;51.972;5.678;2023-08-21T06:29:23;19.5;78.2
78522;SHT31;67819;51.972;5.678;2023-08-21T06:31:52;19.5;78.3
78522;SHT31;67819;51.972;5.678;2023-08-21T06:34:20;19.5;78.4
78522;SHT31;67819;51.972;5.678;2023-08-21T06:36:51;19.5;78.5
78522;SHT31;67819;51.972;5.678;2023-08-21T06:39:19;19.5;78.6
78522;SHT31;67819;51.972;5.678;2023-08-21T06:41:48;19.6;78.5
78522;SHT31;67819;51.972;5.678;2023-08-21T06:44:19;19.6;78.5
78522;SHT31;67819;51.972;5.678;2023-08-21T06:46:48;19.7;78.4
78522;SHT31;67819;51.972;5.678;2023-08-21T06:49:17;19.7;78.5
78522;SHT31;67819;51.972;5.678;2023-08-21T06:51:45;19.7;78.6
78522;SHT31;67819;51.972;5.678;2023-08-21T06:54:14;19.8;78.4
78522;SHT31;67819;51.972;5.678;2023-08-21T06:56:44;19.9;78.4
78522;SHT31;67819;51.972;5.678;2023-08-21T06:59:12;19.9;78.4
78522;SHT31;67819;51.972;5.678;2023-08-21T07:01:41;20.0;78.3
78522;SHT31;67819;51.972;5.678;2023-08-21T07:11:53;21.1;73.8
78522;SHT31;67819;51.972;5.678;2023-08-21T07:14:21;21.2;73.6
78522;SHT31;67819;51.972;5.678;2023-08-21T07:16:50;21.3;73.0
78522;SHT31;67819;51.972;5.678;2023-08-21T07:19:18;21.3;72.6
78522;SHT31;67819;51.972;5.678;2023-08-21T07:31:48;21.4;71.4
78522;SHT31;67819;51.972;5.678;2023-08-21T07:34:17;21.4;71.4
78522;SHT31;67819;51.972;5.678;2023-08-21T07:36:45;21.4;71.1
78522;SHT31;67819;51.972;5.678;2023-08-21T07:43:21;21.6;70.6
78522;SHT31;67819;51.972;5.678;2023-08-21T07:45:49;21.7;70.6
78522;SHT31;67819;51.972;5.678;2023-08-21T07:48:18;21.8;70.3
78522;SHT31;67819;51.972;5.678;2023-08-21T07:50:51;21.8;70.2
78522;SHT31;67819;51.972;5.678;2023-08-21T07:53:22;21.8;70.1
78522;SHT31;67819;51.972;5.678;2023-08-21T07:55:51;21.8;69.8
78522;SHT31;67819;51.972;5.678;2023-08-21T07:58:20;21.8;69.8
78522;SHT31;67819;51.972;5.678;2023-08-21T08:00:49;21.7;69.6
78522;SHT31;67819;51.972;5.678;2023-08-21T08:03:17;21.7;69.7
78522;SHT31;67819;51.972;5.678;2023-08-21T08:05:46;21.7;69.9
78522;SHT31;67819;51.972;5.678;2023-08-21T08:08:16;21.6;70.2
78522;SHT31;67819;51.972;5.678;2023-08-21T08:10:45;21.6;70.0
78522;SHT31;67819;51.972;5.678;2023-08-21T08:13:14;21.6;69.8
78522;SHT31;67819;51.972;5.678;2023-08-21T08:15:42;21.6;69.9
78522;SHT31;67819;51.972;5.678;2023-08-21T08:18:13;21.6;70.0
78522;SHT31;67819;51.972;5.678;2023-08-21T08:20:41;21.6;70.0
78522;SHT31;67819;51.972;5.678;2023-08-21T08:23:10;21.6;70.0
78522;SHT31;67819;51.972;5.678;2023-08-21T08:25:39;21.6;70.0
78522;SHT31;67819;51.972;5.678;2023-08-21T08:28:07;21.7;70.0
78522;SHT31;67819;51.972;5.678;2023-08-21T08:30:36;21.7;70.1
78522;SHT31;67819;51.972;5.678;2023-08-21T08:33:04;21.7;70.0
78522;SHT31;67819;51.972;5.678;2023-08-21T08:35:33;21.7;70.0
78522;SHT31;67819;51.972;5.678;2023-08-21T08:38:02;21.7;69.9
78522;SHT31;67819;51.972;5.678;2023-08-21T08:40:31;21.8;69.9
78522;SHT31;67819;51.972;5.678;2023-08-21T08:43:00;21.8;70.1
78522;SHT31;67819;51.972;5.678;2023-08-21T08:45:30;21.8;70.3
78522;SHT31;67819;51.972;5.678;2023-08-21T08:48:00;21.9;70.3
78522;SHT31;67819;51.972;5.678;2023-08-21T08:50:30;22.0;69.9
78522;SHT31;67819;51.972;5.678;2023-08-21T08:55:24;22.8;66.3
78522;SHT31;67819;51.972;5.678;2023-08-21T08:57:54;22.7;66.5
78522;SHT31;67819;51.972;5.678;2023-08-21T09:00:22;22.7;66.2
78522;SHT31;67819;51.972;5.678;2023-08-21T09:05:24;22.7;65.9
78522;SHT31;67819;51.972;5.678;2023-08-21T09:08:11;22.7;66.0
78522;SHT31;67819;51.972;5.678;2023-08-21T09:10:41;22.8;66.0
78522;SHT31;67819;51.972;5.678;2023-08-21T09:13:15;22.9;66.0
78522;SHT31;67819;51.972;5.678;2023-08-21T09:15:46;22.9;66.3
78522;SHT31;67819;51.972;5.678;2023-08-21T09:18:15;22.9;66.4
78522;SHT31;67819;51.972;5.678;2023-08-21T09:20:44;22.9;66.5
78522;SHT31;67819;51.972;5.678;2023-08-21T09:23:18;22.9;66.6
78522;SHT31;67819;51.972;5.678;2023-08-21T09:25:48;22.9;66.4
78522;SHT31;67819;51.972;5.678;2023-08-21T09:28:19;22.9;66.3
78522;SHT31;67819;51.972;5.678;2023-08-21T09:30:54;23.1;65.4
78522;SHT31;67819;51.972;5.678;2023-08-21T09:33:24;23.1;65.6
78522;SHT31;67819;51.972;5.678;2023-08-21T09:35:55;23.1;65.4
78522;SHT31;67819;51.972;5.678;2023-08-21T09:38:26;23.2;65.3
78522;SHT31;67819;51.972;5.678;2023-08-21T09:40:56;23.2;65.3
78522;SHT31;67819;51.972;5.678;2023-08-21T09:43:25;23.2;65.3
78522;SHT31;67819;51.972;5.678;2023-08-21T09:45:54;23.2;64.8
78522;SHT31;67819;51.972;5.678;2023-08-21T09:48:25;23.2;64.8
78522;SHT31;67819;51.972;5.678;2023-08-21T09:50:57;23.1;64.9
78522;SHT31;67819;51.972;5.678;2023-08-21T09:53:26;23.1;65.1
78522;SHT31;67819;51.972;5.678;2023-08-21T09:55:55;23.1;65.1
78522;SHT31;67819;51.972;5.678;2023-08-21T09:58:25;23.1;65.0
78522;SHT31;67819;51.972;5.678;2023-08-21T10:00:57;23.1;64.9
78522;SHT31;67819;51.972;5.678;2023-08-21T10:03:26;23.1;64.9
78522;SHT31;67819;51.972;5.678;2023-08-21T10:05:57;23.1;64.9
78522;SHT31;67819;51.972;5.678;2023-08-21T10:08:27;23.1;64.9
78522;SHT31;67819;51.972;5.678;2023-08-21T10:13:23;23.5;62.8
78522;SHT31;67819;51.972;5.678;2023-08-21T10:15:52;23.6;63.0
78522;SHT31;67819;51.972;5.678;2023-08-21T10:18:23;23.7;62.9
78522;SHT31;67819;51.972;5.678;2023-08-21T10:20:53;23.7;62.7
78522;SHT31;67819;51.972;5.678;2023-08-21T10:23:31;23.7;62.6
78522;SHT31;67819;51.972;5.678;2023-08-21T10:26:02;23.7;62.5
78522;SHT31;67819;51.972;5.678;2023-08-21T10:28:49;23.7;62.0
78522;SHT31;67819;51.972;5.678;2023-08-21T10:31:29;23.7;61.6
78522;SHT31;67819;51.972;5.678;2023-08-21T10:33:59;23.7;61.8
78522;SHT31;67819;51.972;5.678;2023-08-21T10:37:06;23.7;62.0
78522;SHT31;67819;51.972;5.678;2023-08-21T10:39:36;23.7;62.1
78522;SHT31;67819;51.972;5.678;2023-08-21T10:42:08;23.7;62.1
78522;SHT31;67819;51.972;5.678;2023-08-21T10:44:52;23.6;62.2
78522;SHT31;67819;51.972;5.678;2023-08-21T10:47:23;23.6;62.4
78522;SHT31;67819;51.972;5.678;2023-08-21T10:49:59;23.7;62.3
78522;SHT31;67819;51.972;5.678;2023-08-21T10:52:29;23.7;62.1
78522;SHT31;67819;51.972;5.678;2023-08-21T10:55:01;23.7;62.3
78522;SHT31;67819;51.972;5.678;2023-08-21T10:57:32;23.7;62.1
78522;SHT31;67819;51.972;5.678;2023-08-21T11:00:03;23.8;61.5
78522;SHT31;67819;51.972;5.678;2023-08-21T11:02:34;23.8;61.2
78522;SHT31;67819;51.972;5.678;2023-08-21T11:05:04;23.8;61.3
78522;SHT31;67819;51.972;5.678;2023-08-21T11:07:39;23.8;61.3
78522;SHT31;67819;51.972;5.678;2023-08-21T11:10:11;23.8;61.0
78522;SHT31;67819;51.972;5.678;2023-08-21T11:12:50;23.9;60.4
78522;SHT31;67819;51.972;5.678;2023-08-21T11:15:19;23.9;60.1
78522;SHT31;67819;51.972;5.678;2023-08-21T11:17:57;23.9;60.2
78522;SHT31;67819;51.972;5.678;2023-08-21T11:20:29;24.0;60.1
78522;SHT31;67819;51.972;5.678;2023-08-21T11:22:59;24.0;60.2
78522;SHT31;67819;51.972;5.678;2023-08-21T11:25:29;24.1;60.1
78522;SHT31;67819;51.972;5.678;2023-08-21T11:28:02;24.1;59.9
78522;SHT31;67819;51.972;5.678;2023-08-21T11:30:32;24.2;59.5
78522;SHT31;67819;51.972;5.678;2023-08-21T11:33:08;24.2;59.4
78522;SHT31;67819;51.972;5.678;2023-08-21T11:35:38;24.3;59.1
78522;SHT31;67819;51.972;5.678;2023-08-21T11:38:19;24.4;59.1
78522;SHT31;67819;51.972;5.678;2023-08-21T11:40:57;24.4;58.6
78522;SHT31;67819;51.972;5.678;2023-08-21T11:43:37;24.5;57.7
78522;SHT31;67819;51.972;5.678;2023-08-21T11:46:07;24.5;57.6
78522;SHT31;67819;51.972;5.678;2023-08-21T11:48:42;25.3;55.2
78522;SHT31;67819;51.972;5.678;2023-08-21T11:51:11;25.4;55.4
78522;SHT31;67819;51.972;5.678;2023-08-21T11:53:41;25.5;55.2
78522;SHT31;67819;51.972;5.678;2023-08-21T11:56:14;25.5;54.7
78522;SHT31;67819;51.972;5.678;2023-08-21T11:58:45;25.5;54.7
78522;SHT31;67819;51.972;5.678;2023-08-21T12:01:16;25.5;54.8
78522;SHT31;67819;51.972;5.678;2023-08-21T12:03:44;25.6;54.7
78522;SHT31;67819;51.972;5.678;2023-08-21T12:06:18;25.6;54.7
78522;SHT31;67819;51.972;5.678;2023-08-21T12:08:46;25.6;54.6
78522;SHT31;67819;51.972;5.678;2023-08-21T12:11:15;25.6;54.7
78522;SHT31;67819;51.972;5.678;2023-08-21T12:13:44;25.6;54.9
78522;SHT31;67819;51.972;5.678;2023-08-21T12:16:13;25.6;55.2
78522;SHT31;67819;51.972;5.678;2023-08-21T12:18:41;25.6;55.3
78522;SHT31;67819;51.972;5.678;2023-08-21T12:21:10;25.7;55.4
78522;SHT31;67819;51.972;5.678;2023-08-21T12:23:40;25.7;55.6
78522;SHT31;67819;51.972;5.678;2023-08-21T12:26:09;25.7;55.4
78522;SHT31;67819;51.972;5.678;2023-08-21T12:28:37;25.7;55.0
78522;SHT31;67819;51.972;5.678;2023-08-21T12:31:06;25.6;54.8
78522;SHT31;67819;51.972;5.678;2023-08-21T12:33:34;25.6;54.5
78522;SHT31;67819;51.972;5.678;2023-08-21T12:36:05;25.6;54.2
78522;SHT31;67819;51.972;5.678;2023-08-21T12:38:35;25.5;53.9
78522;SHT31;67819;51.972;5.678;2023-08-21T12:41:03;25.5;54.1
78522;SHT31;67819;51.972;5.678;2023-08-21T12:43:32;25.5;54.3
78522;SHT31;67819;51.972;5.678;2023-08-21T12:46:02;25.6;54.5
78522;SHT31;67819;51.972;5.678;2023-08-21T12:48:31;25.6;54.6
78522;SHT31;67819;51.972;5.678;2023-08-21T12:51:00;25.7;54.4
78522;SHT31;67819;51.972;5.678;2023-08-21T12:53:30;25.8;54.1
78522;SHT31;67819;51.972;5.678;2023-08-21T12:55:59;25.8;54.3
78522;SHT31;67819;51.972;5.678;2023-08-21T12:58:28;25.9;54.0
78522;SHT31;67819;51.972;5.678;2023-08-21T13:00:57;26.0;53.4
78522;SHT31;67819;51.972;5.678;2023-08-21T13:03:27;26.0;52.5
78522;SHT31;67819;51.972;5.678;2023-08-21T13:05:56;26.1;51.5
78522;SHT31;67819;51.972;5.678;2023-08-21T13:08:25;26.1;51.4
78522;SHT31;67819;51.972;5.678;2023-08-21T13:10:53;26.2;50.8
78522;SHT31;67819;51.972;5.678;2023-08-21T13:13:22;26.2;50.7
78522;SHT31;67819;51.972;5.678;2023-08-21T13:15:50;26.3;50.3
78522;SHT31;67819;51.972;5.678;2023-08-21T13:18:20;26.3;49.3
78522;SHT31;67819;51.972;5.678;2023-08-21T13:20:49;26.4;48.7
78522;SHT31;67819;51.972;5.678;2023-08-21T13:23:17;26.4;48.9
78522;SHT31;67819;51.972;5.678;2023-08-21T13:25:48;26.5;49.5
78522;SHT31;67819;51.972;5.678;2023-08-21T13:28:17;26.6;49.8
78522;SHT31;67819;51.972;5.678;2023-08-21T13:30:45;26.7;49.9
78522;SHT31;67819;51.972;5.678;2023-08-21T13:33:15;26.9;49.9
78522;SHT31;67819;51.972;5.678;2023-08-21T13:35:44;27.1;50.3
78522;SHT31;67819;51.972;5.678;2023-08-21T13:38:14;27.2;50.0
78522;SHT31;67819;51.972;5.678;2023-08-21T13:40:43;27.4;49.6
78522;SHT31;67819;51.972;5.678;2023-08-21T13:43:11;27.5;49.7
78522;SHT31;67819;51.972;5.678;2023-08-21T13:45:40;27.6;49.3
78522;SHT31;67819;51.972;5.678;2023-08-21T13:48:11;27.8;48.8
78522;SHT31;67819;51.972;5.678;2023-08-21T13:50:39;27.9;48.5
78522;SHT31;67819;51.972;5.678;2023-08-21T13:53:08;28.0;48.2
78522;SHT31;67819;51.972;5.678;2023-08-21T13:55:37;28.1;48.0
78522;SHT31;67819;51.972;5.678;2023-08-21T13:58:05;28.2;48.1
78522;SHT31;67819;51.972;5.678;2023-08-21T14:00:36;28.4;47.9
78522;SHT31;67819;51.972;5.678;2023-08-21T14:03:05;28.5;47.3
78522;SHT31;67819;51.972;5.678;2023-08-21T14:05:35;28.6;47.3
78522;SHT31;67819;51.972;5.678;2023-08-21T14:08:05;28.7;47.1
78522;SHT31;67819;51.972;5.678;2023-08-21T14:10:34;28.8;46.3
78522;SHT31;67819;51.972;5.678;2023-08-21T14:13:03;28.8;46.3
78522;SHT31;67819;51.972;5.678;2023-08-21T14:15:34;28.9;45.9
78522;SHT31;67819;51.972;5.678;2023-08-21T14:18:05;29.0;45.8
78522;SHT31;67819;51.972;5.678;2023-08-21T14:20:34;29.0;46.1
78522;SHT31;67819;51.972;5.678;2023-08-21T14:23:03;29.1;45.7
78522;SHT31;67819;51.972;5.678;2023-08-21T14:25:31;29.1;45.3
78522;SHT31;67819;51.972;5.678;2023-08-21T14:28:00;29.1;45.5
78522;SHT31;67819;51.972;5.678;2023-08-21T14:30:29;29.1;45.2
78522;SHT31;67819;51.972;5.678;2023-08-21T14:33:00;29.1;45.0
78522;SHT31;67819;51.972;5.678;2023-08-21T14:35:28;29.0;45.1
78522;SHT31;67819;51.972;5.678;2023-08-21T14:37:57;28.9;44.5
78522;SHT31;67819;51.972;5.678;2023-08-21T14:40:27;28.6;44.6
78522;SHT31;67819;51.972;5.678;2023-08-21T14:42:56;28.4;44.6
78522;SHT31;67819;51.972;5.678;2023-08-21T14:45:25;28.2;44.9
78522;SHT31;67819;51.972;5.678;2023-08-21T14:47:53;28.0;44.6
78522;SHT31;67819;51.972;5.678;2023-08-21T14:50:24;27.8;44.5
78522;SHT31;67819;51.972;5.678;2023-08-21T14:52:52;27.7;45.0
78522;SHT31;67819;51.972;5.678;2023-08-21T14:55:21;27.5;45.2
78522;SHT31;67819;51.972;5.678;2023-08-21T14:57:49;27.4;45.1
78522;SHT31;67819;51.972;5.678;2023-08-21T15:00:18;27.3;45.1
78522;SHT31;67819;51.972;5.678;2023-08-21T15:02:47;27.2;45.3
78522;SHT31;67819;51.972;5.678;2023-08-21T15:05:15;27.2;45.7
78522;SHT31;67819;51.972;5.678;2023-08-21T15:07:44;27.1;45.8
78522;SHT31;67819;51.972;5.678;2023-08-21T15:10:14;27.1;46.0
78522;SHT31;67819;51.972;5.678;2023-08-21T15:12:43;27.0;46.1
78522;SHT31;67819;51.972;5.678;2023-08-21T15:15:12;27.0;46.3
78522;SHT31;67819;51.972;5.678;2023-08-21T15:17:41;26.9;46.5
78522;SHT31;67819;51.972;5.678;2023-08-21T15:20:10;26.9;46.3
78522;SHT31;67819;51.972;5.678;2023-08-21T15:22:41;26.9;46.1
78522;SHT31;67819;51.972;5.678;2023-08-21T15:25:10;26.9;46.2
78522;SHT31;67819;51.972;5.678;2023-08-21T15:27:39;26.9;45.9
78522;SHT31;67819;51.972;5.678;2023-08-21T15:30:09;26.8;45.9
78522;SHT31;67819;51.972;5.678;2023-08-21T15:32:37;26.8;45.7
78522;SHT31;67819;51.972;5.678;2023-08-21T15:35:08;26.8;45.6
78522;SHT31;67819;51.972;5.678;2023-08-21T15:37:37;26.7;45.6
78522;SHT31;67819;51.972;5.678;2023-08-21T15:40:06;26.7;45.8
78522;SHT31;67819;51.972;5.678;2023-08-21T15:42:35;26.6;46.0
78522;SHT31;67819;51.972;5.678;2023-08-21T15:45:04;26.6;46.2
78522;SHT31;67819;51.972;5.678;2023-08-21T15:47:33;26.6;46.4
78522;SHT31;67819;51.972;5.678;2023-08-21T15:50:02;26.6;46.4
78522;SHT31;67819;51.972;5.678;2023-08-21T15:52:31;26.5;46.3
78522;SHT31;67819;51.972;5.678;2023-08-21T15:54:59;26.5;46.0
78522;SHT31;67819;51.972;5.678;2023-08-21T15:57:28;26.5;45.8
78522;SHT31;67819;51.972;5.678;2023-08-21T15:59:58;26.5;46.1
78522;SHT31;67819;51.972;5.678;2023-08-21T16:02:26;26.4;46.2
78522;SHT31;67819;51.972;5.678;2023-08-21T16:04:56;26.4;46.3
78522;SHT31;67819;51.972;5.678;2023-08-21T16:07:24;26.4;46.4
78522;SHT31;67819;51.972;5.678;2023-08-21T16:09:53;26.4;46.7
78522;SHT31;67819;51.972;5.678;2023-08-21T16:12:21;26.3;46.9
78522;SHT31;67819;51.972;5.678;2023-08-21T16:14:50;26.3;47.0
78522;SHT31;67819;51.972;5.678;2023-08-21T16:17:18;26.3;47.2
78522;SHT31;67819;51.972;5.678;2023-08-21T16:19:47;26.3;47.3
78522;SHT31;67819;51.972;5.678;2023-08-21T16:22:16;26.3;47.7
78522;SHT31;67819;51.972;5.678;2023-08-21T16:24:45;26.3;47.8
78522;SHT31;67819;51.972;5.678;2023-08-21T16:27:13;26.3;47.9
78522;SHT31;67819;51.972;5.678;2023-08-21T16:29:42;26.4;48.0
78522;SHT31;67819;51.972;5.678;2023-08-21T16:32:10;26.4;47.7
78522;SHT31;67819;51.972;5.678;2023-08-21T16:34:39;26.4;47.3
78522;SHT31;67819;51.972;5.678;2023-08-21T16:37:07;26.4;47.1
78522;SHT31;67819;51.972;5.678;2023-08-21T16:39:36;26.4;47.2
78522;SHT31;67819;51.972;5.678;2023-08-21T16:42:05;26.4;47.4
78522;SHT31;67819;51.972;5.678;2023-08-21T16:44:34;26.3;47.6
78522;SHT31;67819;51.972;5.678;2023-08-21T16:47:03;26.3;47.5
78522;SHT31;67819;51.972;5.678;2023-08-21T16:49:33;26.3;47.6
78522;SHT31;67819;51.972;5.678;2023-08-21T16:52:01;26.3;47.5
78522;SHT31;67819;51.972;5.678;2023-08-21T16:54:30;26.2;47.6
78522;SHT31;67819;51.972;5.678;2023-08-21T16:56:59;26.2;47.4
78522;SHT31;67819;51.972;5.678;2023-08-21T16:59:29;26.3;47.3
78522;SHT31;67819;51.972;5.678;2023-08-21T17:01:58;26.2;47.5
78522;SHT31;67819;51.972;5.678;2023-08-21T17:04:26;26.2;47.5
78522;SHT31;67819;51.972;5.678;2023-08-21T17:06:55;26.2;47.6
78522;SHT31;67819;51.972;5.678;2023-08-21T17:09:24;26.2;47.7